• Back
  •  
  • Position of Reservoir Gates
S.No.
No. of opened gates
Position of opening (In m)
Reporting Date
Reporting Time
Discharge in Cumecs
Discharge in Cusecs
Actual date and time of Gate opening
1
2
3
4
5
6
7
8
1 2 04/09/2012 10:01:01 AM 21.15
2 2 05/09/2012 8:27:47 AM 21.15
3 2 13/09/2012 9:26:18 AM 21.15
4 2 10/09/2012 9:08:09 AM 21.15
5 1 29/07/2016 11:08:32 AM 43
6 1 01/08/2016 3:05:36 PM 43
7 3 01/08/2016 7:35:14 PM 218
8 4 01/08/2016 8:51:14 PM 350
9 1 02/08/2016 8:26:29 AM 65
10 2 04/08/2016 2:44:27 AM 130
11 3 04/08/2016 6:48:27 AM 322
12 4 04/08/2016 9:16:27 AM 429
13 4 04/08/2016 9:24:27 AM 429
14 2 04/08/2016 11:20:27 AM 214
15 1 05/08/2016 6:54:31 AM 107
16 2 06/08/2016 5:12:34 AM 174
17 2 06/08/2016 7:44:34 AM 141
18 2 06/08/2016 7:48:34 AM 131
19 2 07/08/2016 8:24:35 AM 173
20 3 07/08/2016 2:11:48 PM 282
21 4 07/08/2016 3:19:48 PM 390
22 4 07/08/2016 3:19:48 PM 390
23 3 07/08/2016 4:37:39 PM 280
24 2 07/08/2016 5:37:39 PM 173
25 1 08/08/2016 2:39:48 AM 43
26 1 09/08/2016 7:22:07 PM 22
27 1 13/08/2016 6:30:17 AM 22
28 1 13/08/2016 6:30:17 AM 65
29 2 13/08/2016 6:30:17 AM 130
30 3 13/08/2016 6:30:17 AM 174
31 2 13/08/2016 9:10:37 AM 130
32 1 13/08/2016 1:38:37 PM 65
33 1 13/08/2016 8:10:37 PM 44
34 2 14/08/2016 8:17:29 AM 109
35 1 15/08/2016 7:19:18 PM 66
36 1 16/08/2016 12:55:18 AM 22
37 1 14/08/2016 3:06:37 AM 87
38 1 14/08/2016 1:49:29 PM 44
39 0 15/08/2016 7:34:37 AM 0
40 0 16/08/2016 11:56:46 AM 0
41 1 18/08/2016 11:18:11 AM 44
42 0 18/08/2016 9:58:11 PM 0
43 0 18/08/2016 9:58:11 PM 0
44 1 19/08/2016 4:45:17 PM 44
45 1 19/08/2016 6:29:17 PM 89
46 2 19/08/2016 6:29:17 PM 89
47 2 19/08/2016 11:34:45 PM 133
48 3 20/08/2016 12:46:45 AM 329
49 5 20/08/2016 1:30:45 AM 548
50 4 20/08/2016 11:59:58 AM 439
51 3 20/08/2016 11:59:58 AM 330
52 5 20/08/2016 12:21:16 PM 548
53 4 20/08/2016 6:45:56 PM 436
54 2 20/08/2016 11:35:54 PM 216
55 1 21/08/2016 10:10:42 AM 44
56 1 23/08/2016 11:43:53 AM 66
57 1 28/08/2016 1:08:10 AM 66
58 1 28/08/2016 5:12:10 AM 22
59 0 03/09/2016 7:29:56 AM 0
60 0 31/08/2016 7:16:22 AM 0
61 2 15/09/2016 7:59:30 PM 110
62 1 15/09/2016 9:15:30 PM 22
63 0 15/09/2016 11:07:30 PM 0
64 1 02/10/2016 3:06:15 PM 23
65 0 02/10/2016 5:30:15 PM 0
66 1 08/10/2016 7:48:23 AM 45
67 0 08/10/2016 9:20:23 AM 0
68 2 28/07/2017 1:57:35 PM 81
Powered by © Water Resources Department (MP). All Rights Reserved.